INFORMACIÓN METAR y TAF
METAR FOR LESO
ADDS - METARS form results

(2323 UTC 23 March 2019)
Data provider http://aviationweather.gov/metar/data/
 
METAR text: LESO 232300Z AUTO 20004KT 170V230 9999 NCD 10/07 Q1025
Conditions at: LESO (SAN SEBASTIAN/FU, ES) observed 2300 UTC 23 March 2019
Temperature: 10.0°C (50°F)
Dewpoint: 7.0°C (45°F) [RH = 82%]
Pressure (altimeter): 30.27 inches Hg (1025.0 mb)
Winds: from the SSW (200 degrees) at 5 MPH (4 knots; 2.1 m/s)
Visibility: 6 or more miles (10+ km)
Ceiling: at least 12,000 feet AGL
Clouds: sky clear below 12,000 feet AGL
Weather: no significant weather observed at this time

METAR text: LESO 232230Z AUTO 20003KT 170V230 9999 NCD 11/07 Q1025
Conditions at: LESO (SAN SEBASTIAN/FU, ES) observed 2230 UTC 23 March 2019
Temperature: 11.0°C (52°F)
Dewpoint: 7.0°C (45°F) [RH = 76%]
Pressure (altimeter): 30.27 inches Hg (1025.0 mb)
Winds: from the SSW (200 degrees) at 3 MPH (3 knots; 1.5 m/s)
Visibility: 6 or more miles (10+ km)
Ceiling: at least 12,000 feet AGL
Clouds: sky clear below 12,000 feet AGL
Weather: no significant weather observed at this time

Forecast for: LESO (SAN SEBASTIAN/FU, ES)
Text: TAF LESO 231700Z 2318/2418 VRB05KT CAVOK TX19/2414Z TN08/2406Z
Forecast period: 1800 UTC 23 March 2019 to 1800 UTC 24 March 2019
Forecast type: FROM: standard forecast or significant change
Winds: variable direction winds at 6 MPH (5 knots; 2.6 m/s)
Visibility: 6 or more miles 10+ km)
Ceiling: unknown
Clouds: missing
Weather: no significant weather forecast for this period
Text: PROB30 2413/2417 02010KT
Forecast period: 1300 to 1700 UTC 24 March 2019
Forecast type: PROBABLE: 30 percent likelihood of the following during this time
Winds: from the NNE (20 degrees) at 12 MPH (10 knots; 5.1 m/s)
Visibility: missing
Ceiling: unknown
Clouds: missing
Weather: no significant weather forecast for this period

 MAPA DE AEROPUERTO

 INFORMACIÓN DE PISTA
Pista 04 Longitud 5755 ft Ancho 148 ft
Elevación 10 ft Umbral desplazado 0 ft Rumbo de pista 39
Pista 22 Longitud 5755 ft Ancho 148 ft
Elevación 15 ft Umbral desplazado 0 ft Rumbo de pista 219

 FRECUANCIAS DEL AEROPUERTO
Tipo TWR Nombre SAN SEBAST Frecuencia 119.85 MHZ

 RADIO AYUDAS DEL AEROPUERTO
Tipo NDB-DME Nombre San Sebastian Frecuencia 328 KHZ
Tipo VOR-DME Nombre San Sebastian Frecuencia 117900 KHZ



              


PayPal

©2019 Oasis Virtual Airlines
Simulando desde el 2013

Oasis Líneas Aéreas Virtuales no está relacionada con ninguna compañía real.
Se trata de un entorno virtual de simulación aérea, sin ánimo de lucro.


Visitas: 31492

VAM v2.6.2 [MOD.]